Time;durP1;ratioP1;P1;durP2;ratioP2;P2;SDS_P1;SDS_P2;PMS_P1;PMS_P2;Temp;Humidity;BMP_temperature;BMP_pressure;BME280_temperature;BME280_humidity;BME280_pressure;Samples;Min_cycle;Max_cycle;Signal;HPM_P1;HPM_P2
2022/10/02 00:00:09;;;;;;;8.43;2.92;;;;;;;9.06;100.00;98439.41;4187382;28;20051;-72
2022/10/02 00:02:20;;;;;;;7.07;3.00;;;;;;;9.05;100.00;98435.03;4187650;28;20040;-72
2022/10/02 00:04:26;;;;;;;6.22;3.20;;;;;;;9.13;100.00;98447.00;4188081;28;20546;-72
2022/10/02 00:06:33;;;;;;;4.90;2.38;;;;;;;9.11;100.00;98447.38;4187881;28;20380;-71
2022/10/02 00:08:38;;;;;;;5.28;2.95;;;;;;;9.08;100.00;98458.34;4173340;28;20053;-71
2022/10/02 00:10:43;;;;;;;12.75;3.38;;;;;;;9.05;100.00;98456.31;4187138;28;20072;-72
2022/10/02 00:12:48;;;;;;;8.13;3.13;;;;;;;9.01;100.00;98453.50;4176379;28;20041;-71
2022/10/02 00:14:54;;;;;;;8.93;3.40;;;;;;;8.97;100.00;98449.88;4186462;28;20045;-71
2022/10/02 00:16:58;;;;;;;9.77;3.67;;;;;;;9.00;100.00;98458.22;4187365;28;20036;-71
2022/10/02 00:18:59;;;;;;;8.32;3.17;;;;;;;8.96;100.00;98453.81;4186567;28;20480;-71
2022/10/02 00:21:27;;;;;;;7.05;3.20;;;;;;;8.92;100.00;98472.25;4187445;28;20133;-72
2022/10/02 00:23:31;;;;;;;11.48;3.45;;;;;;;8.93;100.00;98471.88;4180850;28;20568;-71
2022/10/02 00:25:48;;;;;;;9.50;3.40;;;;;;;8.92;100.00;98467.53;4187437;28;20132;-71
2022/10/02 00:28:12;;;;;;;11.48;2.88;;;;;;;8.97;100.00;98472.75;4187440;28;20032;-72
2022/10/02 00:30:16;;;;;;;11.02;3.75;;;;;;;8.99;100.00;98473.19;4186599;28;20070;-71
2022/10/02 00:32:35;;;;;;;7.95;3.20;;;;;;;8.93;100.00;98474.66;4186611;28;20028;-71
2022/10/02 00:35:07;;;;;;;8.93;3.65;;;;;;;8.90;100.00;98469.06;4187361;28;20047;-71
2022/10/02 00:37:45;;;;;;;7.13;3.17;;;;;;;8.93;100.00;98482.91;4186800;28;20094;-71
2022/10/02 00:40:01;;;;;;;11.35;3.67;;;;;;;8.95;100.00;98479.81;4118228;28;20108;-71
2022/10/02 00:42:04;;;;;;;7.85;3.55;;;;;;;9.08;100.00;98491.47;4186657;28;20052;-71
2022/10/02 00:44:17;;;;;;;8.35;3.25;;;;;;;9.06;100.00;98493.78;4187188;28;20029;-71
2022/10/02 00:46:31;;;;;;;11.13;3.85;;;;;;;9.04;100.00;98493.38;4187007;28;20362;-71
2022/10/02 00:48:50;;;;;;;9.05;3.65;;;;;;;9.01;100.00;98495.69;4185909;28;20044;-71
2022/10/02 00:51:09;;;;;;;8.68;3.17;;;;;;;8.99;100.00;98494.47;4186343;28;20379;-71
2022/10/02 00:53:24;;;;;;;7.57;3.00;;;;;;;9.02;100.00;98493.75;4186771;28;20072;-71
2022/10/02 00:55:33;;;;;;;10.80;3.78;;;;;;;9.00;100.00;98490.53;4186583;28;20274;-71
2022/10/02 00:57:49;;;;;;;8.60;4.10;;;;;;;8.98;100.00;98490.13;4186767;28;20110;-72
2022/10/02 01:00:12;;;;;;;6.95;3.38;;;;;;;8.97;100.00;98494.03;4186072;28;20213;-71
2022/10/02 01:02:40;;;;;;;6.45;3.72;;;;;;;8.98;100.00;98492.88;4186847;28;20045;-71
2022/10/02 01:04:41;;;;;;;11.40;3.30;;;;;;;8.99;100.00;98489.75;4185950;28;20048;-72
2022/10/02 01:06:41;;;;;;;9.77;3.72;;;;;;;8.97;100.00;98497.59;4186341;28;20053;-72
2022/10/02 01:08:42;;;;;;;9.27;3.78;;;;;;;8.98;100.00;98499.19;4185812;28;20048;-71
2022/10/02 01:10:42;;;;;;;10.20;3.67;;;;;;;8.97;100.00;98489.31;4187021;28;20314;-71
2022/10/02 01:12:43;;;;;;;8.38;3.35;;;;;;;8.98;100.00;98492.88;4186365;28;20044;-71
2022/10/02 01:14:44;;;;;;;9.02;3.33;;;;;;;8.96;100.00;98492.44;4186526;28;20195;-72
2022/10/02 01:16:44;;;;;;;9.45;3.55;;;;;;;8.99;100.00;98494.47;4186244;28;20139;-72
2022/10/02 01:18:46;;;;;;;10.65;3.50;;;;;;;9.05;100.00;98503.25;4185840;28;20048;-71
2022/10/02 01:20:51;;;;;;;11.60;3.80;;;;;;;9.04;100.00;98502.44;4185677;28;20037;-71
2022/10/02 01:22:57;;;;;;;9.73;3.13;;;;;;;9.11;100.00;98508.09;4186595;28;20430;-71
2022/10/02 01:25:00;;;;;;;9.20;3.72;;;;;;;9.07;100.00;98498.16;4186671;28;20067;-71
2022/10/02 01:27:01;;;;;;;9.48;3.78;;;;;;;9.06;100.00;98504.84;4185044;28;20051;-71
2022/10/02 01:29:02;;;;;;;7.03;3.20;;;;;;;9.07;100.00;98509.19;4185368;28;20045;-71
2022/10/02 01:31:09;;;;;;;10.02;3.70;;;;;;;9.07;100.00;98506.44;4186324;28;20047;-71
2022/10/02 01:33:11;;;;;;;7.50;3.47;;;;;;;9.02;100.00;98502.03;4186152;28;20549;-72
2022/10/02 01:35:11;;;;;;;7.93;3.17;;;;;;;8.97;100.00;98507.84;4185965;28;20051;-71
2022/10/02 01:37:12;;;;;;;5.47;3.90;;;;;;;8.97;100.00;98507.84;4185983;28;20056;-71
2022/10/02 01:39:13;;;;;;;5.75;3.35;;;;;;;8.95;100.00;98504.66;4186341;28;20503;-71
2022/10/02 01:41:13;;;;;;;10.77;3.58;;;;;;;8.95;100.00;98504.66;4186286;28;20145;-71
2022/10/02 01:43:18;;;;;;;7.78;3.70;;;;;;;8.91;100.00;98501.81;4185776;28;20377;-71
2022/10/02 01:45:31;;;;;;;14.52;4.80;;;;;;;8.88;100.00;98499.00;4176912;28;20497;-71
2022/10/02 01:47:34;;;;;;;10.90;3.72;;;;;;;8.84;100.00;98500.88;4185921;28;20051;-71
2022/10/02 01:49:43;;;;;;;10.25;3.67;;;;;;;8.80;100.00;98491.75;4185178;28;20102;-71
2022/10/02 01:51:59;;;;;;;5.95;3.85;;;;;;;8.76;100.00;98494.44;4186245;28;20488;-71
2022/10/02 01:54:25;;;;;;;8.70;3.88;;;;;;;8.69;100.00;98494.31;4184967;28;20040;-72
2022/10/02 01:56:51;;;;;;;13.50;4.22;;;;;;;8.63;100.00;98495.78;4186041;28;20526;-71
2022/10/02 01:59:48;;;;;;;7.47;4.07;;;;;;;8.59;100.00;98498.44;4185690;28;20269;-71
2022/10/02 02:01:59;;;;;;;9.80;3.40;;;;;;;8.51;100.00;98501.44;4133805;28;20437;-71
2022/10/02 02:04:02;;;;;;;5.95;4.03;;;;;;;8.50;100.00;98505.34;4132434;28;20132;-71
2022/10/02 02:06:13;;;;;;;8.55;3.58;;;;;;;8.44;100.00;98499.34;4135775;28;20050;-72
2022/10/02 02:08:27;;;;;;;5.70;3.65;;;;;;;8.49;100.00;98515.59;4186132;28;20033;-71
2022/10/02 02:10:40;;;;;;;11.77;3.85;;;;;;;8.46;100.00;98507.25;4186089;28;20051;-72
2022/10/02 02:13:01;;;;;;;7.78;4.95;;;;;;;8.41;100.00;98509.13;4183822;28;20040;-72
2022/10/02 02:15:19;;;;;;;6.80;3.80;;;;;;;8.42;100.00;98512.69;4185507;28;20412;-71
2022/10/02 02:17:27;;;;;;;8.45;4.15;;;;;;;8.39;100.00;98514.22;4185954;28;20163;-71
2022/10/02 02:19:34;;;;;;;11.20;4.35;;;;;;;8.37;100.00;98511.03;4185444;28;20087;-71
2022/10/02 02:21:41;;;;;;;7.68;3.88;;;;;;;8.35;100.00;98510.56;4185754;28;20076;-71
2022/10/02 02:23:42;;;;;;;9.13;4.07;;;;;;;8.34;100.00;98514.47;4185450;28;20275;-71
2022/10/02 02:25:46;;;;;;;7.88;3.50;;;;;;;8.32;100.00;98519.53;4186107;28;20056;-71
2022/10/02 02:27:52;;;;;;;9.77;3.97;;;;;;;8.32;100.00;98516.00;4185721;28;20045;-71
2022/10/02 02:29:59;;;;;;;6.88;4.15;;;;;;;8.32;100.00;98511.28;4185640;28;20048;-71
2022/10/02 02:32:03;;;;;;;10.27;4.53;;;;;;;8.31;100.00;98512.44;4185571;28;20099;-71
2022/10/02 02:34:10;;;;;;;7.40;4.07;;;;;;;8.35;100.00;98518.03;4184440;28;20059;-72
2022/10/02 02:36:15;;;;;;;11.13;5.63;;;;;;;8.36;100.00;98517.69;4185490;28;20036;-71
2022/10/02 02:38:37;;;;;;;8.98;4.85;;;;;;;8.43;100.00;98520.59;4185842;28;20036;-71
2022/10/02 02:40:42;;;;;;;8.20;4.63;;;;;;;8.50;100.00;98517.16;4185408;28;20053;-71
2022/10/02 02:42:50;;;;;;;6.78;4.28;;;;;;;8.57;100.00;98517.31;4185563;28;20053;-71
2022/10/02 02:45:01;;;;;;;9.20;4.65;;;;;;;8.57;100.00;98519.28;4185539;28;20040;-71
2022/10/02 02:47:13;;;;;;;10.75;5.20;;;;;;;8.60;100.00;98515.78;4185367;28;20049;-71
2022/10/02 02:49:14;;;;;;;8.35;4.28;;;;;;;8.59;100.00;98516.94;4184934;28;20087;-71
2022/10/02 02:51:23;;;;;;;8.35;4.32;;;;;;;8.55;100.00;98513.34;4185371;28;20048;-71
2022/10/02 02:53:39;;;;;;;18.10;6.40;;;;;;;8.53;100.00;98515.66;4185461;28;20404;-71
2022/10/02 02:55:48;;;;;;;8.82;4.18;;;;;;;8.51;100.00;98512.47;4183364;28;20478;-71
2022/10/02 02:57:56;;;;;;;11.15;5.57;;;;;;;8.53;100.00;98526.69;4188602;28;20048;-71
2022/10/02 02:59:57;;;;;;;8.82;4.70;;;;;;;8.49;100.00;98525.81;4188598;28;20056;-71
2022/10/02 03:01:58;;;;;;;11.30;5.27;;;;;;;8.46;100.00;98526.56;4188223;28;20127;-71
2022/10/02 03:03:58;;;;;;;7.88;4.50;;;;;;;8.46;100.00;98526.56;4188490;28;20143;-71
2022/10/02 03:06:05;;;;;;;10.27;5.15;;;;;;;8.42;100.00;98529.22;4188892;28;20044;-71
2022/10/02 03:08:30;;;;;;;9.48;4.25;;;;;;;8.42;100.00;98527.25;4187880;28;20052;-71
2022/10/02 03:10:39;;;;;;;8.20;4.63;;;;;;;8.46;100.00;98519.06;4187783;28;20443;-71
2022/10/02 03:13:12;;;;;;;12.45;5.20;;;;;;;8.67;100.00;98521.44;4188008;28;20044;-71
2022/10/02 03:15:26;;;;;;;10.00;5.18;;;;;;;8.72;100.00;98523.91;4166736;28;20473;-71
2022/10/02 03:17:32;;;;;;;10.93;4.70;;;;;;;8.80;100.00;98531.19;4188091;28;20048;-71
2022/10/02 03:19:50;;;;;;;7.00;4.95;;;;;;;8.87;100.00;98525.00;4187410;28;20053;-71
2022/10/02 03:22:28;;;;;;;8.75;4.35;;;;;;;8.97;100.00;98527.16;4175476;28;20044;-71
2022/10/02 03:24:38;;;;;;;9.63;4.82;;;;;;;9.03;100.00;98524.91;4178958;28;20068;-71
2022/10/02 03:26:44;;;;;;;8.23;4.78;;;;;;;9.09;100.00;98535.25;4188557;28;20051;-71
2022/10/02 03:28:58;;;;;;;8.38;4.25;;;;;;;9.14;100.00;98539.69;4188030;28;20493;-71
2022/10/02 03:30:59;;;;;;;11.30;4.15;;;;;;;9.19;100.00;98534.66;4187980;28;20041;-71
2022/10/02 03:33:02;;;;;;;7.50;4.50;;;;;;;9.18;100.00;98532.25;4188207;28;20044;-71
2022/10/02 03:35:06;;;;;;;7.32;4.60;;;;;;;9.19;100.00;98528.34;4187831;28;20052;-71
2022/10/02 03:37:07;;;;;;;12.57;4.97;;;;;;;9.21;100.00;98553.63;4188068;28;20053;-71
2022/10/02 03:39:08;;;;;;;13.63;4.82;;;;;;;9.26;100.00;98551.31;4187574;28;20044;-71
2022/10/02 03:41:08;;;;;;;8.35;4.85;;;;;;;9.28;100.00;98546.25;4187601;28;20052;-71
2022/10/02 03:43:20;;;;;;;10.10;4.85;;;;;;;9.29;100.00;98542.34;4187997;28;20053;-72
2022/10/02 03:45:20;;;;;;;9.63;4.60;;;;;;;9.32;100.00;98542.75;4188067;28;20056;-71
2022/10/02 03:47:21;;;;;;;9.15;4.50;;;;;;;9.33;100.00;98539.63;4187995;28;20051;-71
2022/10/02 03:49:21;;;;;;;8.75;4.93;;;;;;;9.37;100.00;98543.25;4187336;28;20045;-71
2022/10/02 03:51:22;;;;;;;12.05;4.63;;;;;;;9.39;100.00;98540.13;4187420;28;20048;-71
2022/10/02 03:53:28;;;;;;;7.80;4.57;;;;;;;9.39;100.00;98531.84;4187559;28;20430;-71
2022/10/02 03:55:36;;;;;;;8.50;4.20;;;;;;;9.41;100.00;98529.50;4187578;28;20520;-71
2022/10/02 03:57:37;;;;;;;9.20;4.85;;;;;;;9.40;100.00;98527.91;4188115;28;20043;-71
2022/10/02 04:00:05;;;;;;;8.07;4.30;;;;;;;9.43;100.00;98529.91;4186910;28;20402;-71
2022/10/02 04:02:14;;;;;;;9.30;4.35;;;;;;;9.44;100.00;98529.56;4178448;28;20500;-71
2022/10/02 04:04:22;;;;;;;7.57;4.07;;;;;;;9.44;100.00;98531.53;4187288;28;20024;-71
2022/10/02 04:06:39;;;;;;;8.15;4.05;;;;;;;9.45;100.00;98539.44;4187624;28;20392;-71
2022/10/02 04:08:49;;;;;;;8.80;3.75;;;;;;;9.41;100.00;98538.56;4186593;28;20493;-71
2022/10/02 04:11:03;;;;;;;8.88;4.20;;;;;;;9.45;100.00;98535.88;4187678;28;20095;-71
2022/10/02 04:13:13;;;;;;;6.40;3.85;;;;;;;9.47;100.00;98530.78;4187488;28;20106;-71
2022/10/02 04:15:29;;;;;;;7.22;4.10;;;;;;;9.48;100.00;98522.13;4187299;28;20589;-71
2022/10/02 04:17:42;;;;;;;11.20;4.07;;;;;;;9.56;100.00;98514.75;4187418;28;20041;-71
2022/10/02 04:19:50;;;;;;;7.70;4.03;;;;;;;9.56;100.00;98512.78;4186873;28;20392;-71
2022/10/02 04:21:56;;;;;;;7.47;4.30;;;;;;;9.57;100.00;98513.59;4187516;28;20455;-71
2022/10/02 04:24:11;;;;;;;10.80;4.35;;;;;;;9.54;100.00;98515.13;4187693;28;20139;-71
2022/10/02 04:26:24;;;;;;;9.30;3.92;;;;;;;9.49;100.00;98518.19;4186505;28;20052;-72
2022/10/02 04:28:30;;;;;;;;;;;;;;;9.53;100.00;98508.03;4187110;28;20036;-72
2022/10/02 04:30:31;;;;;;;6.30;3.33;;;;;;;9.55;100.00;98513.97;4187308;28;19916;-72
2022/10/02 04:32:33;;;;;;;8.63;3.83;;;;;;;9.55;100.00;98513.97;4187221;28;20040;-71
2022/10/02 04:34:33;;;;;;;;;;;;;;;9.56;100.00;98518.31;4187448;28;20477;-71
2022/10/02 04:37:25;;;;;;;7.88;3.20;;;;;;;9.52;100.00;98523.00;4173818;28;20080;-72
2022/10/02 04:39:52;;;;;;;9.90;3.40;;;;;;;9.44;100.00;98521.28;4174447;28;20268;-72
2022/10/02 04:42:14;;;;;;;6.13;3.00;;;;;;;9.38;100.00;98528.28;4187227;28;20045;-71
2022/10/02 04:44:17;;;;;;;5.40;3.50;;;;;;;9.34;100.00;98535.69;4186266;28;20272;-72
2022/10/02 04:46:50;;;;;;;10.18;3.63;;;;;;;9.28;100.00;98526.13;4187057;28;20024;-72
2022/10/02 04:49:35;;;;;;;7.13;3.43;;;;;;;9.22;100.00;98528.41;4166725;28;20198;-72
2022/10/02 04:51:47;;;;;;;6.90;3.38;;;;;;;9.15;100.00;98517.22;4183491;28;20032;-71
2022/10/02 04:53:54;;;;;;;7.32;3.30;;;;;;;9.12;100.00;98520.72;4186388;28;20044;-71
2022/10/02 04:56:26;;;;;;;10.50;3.22;;;;;;;9.07;100.00;98528.50;4186675;28;20044;-71
2022/10/02 04:58:35;;;;;;;5.45;3.30;;;;;;;9.01;100.00;98519.72;4184886;28;20036;-71
2022/10/02 05:00:46;;;;;;;6.78;3.15;;;;;;;8.97;100.00;98524.41;4186503;28;20921;-71
2022/10/02 05:02:56;;;;;;;7.07;3.30;;;;;;;8.91;100.00;98518.38;4186761;28;20112;-71
2022/10/02 05:05:08;;;;;;;4.95;3.00;;;;;;;8.87;100.00;98519.47;4186445;28;20303;-71
2022/10/02 05:07:11;;;;;;;5.32;2.92;;;;;;;8.84;100.00;98522.94;4186765;28;20079;-71
2022/10/02 05:09:39;;;;;;;4.20;2.95;;;;;;;8.78;100.00;98516.16;4185985;28;20380;-71
2022/10/02 05:11:47;;;;;;;7.80;3.10;;;;;;;8.78;100.00;98527.19;4187022;28;20040;-72
2022/10/02 05:14:02;;;;;;;5.40;3.55;;;;;;;8.77;100.00;98525.56;4186206;28;20136;-71
2022/10/02 05:16:45;;;;;;;5.28;2.95;;;;;;;8.75;100.00;98522.38;4185017;28;20060;-71
2022/10/02 05:18:54;;;;;;;5.63;3.50;;;;;;;8.73;100.00;98533.78;4147568;28;20052;-71
2022/10/02 05:21:06;;;;;;;8.40;3.35;;;;;;;8.70;100.00;98526.25;4185765;28;20103;-71
2022/10/02 05:23:34;;;;;;;7.20;3.20;;;;;;;8.64;100.00;98517.47;4186682;28;20930;-71
2022/10/02 05:25:41;;;;;;;12.32;3.70;;;;;;;8.65;100.00;98518.25;4186000;28;20860;-71
2022/10/02 05:27:53;;;;;;;8.70;3.00;;;;;;;8.62;100.00;98524.53;4186089;28;20829;-71
2022/10/02 05:30:03;;;;;;;6.65;3.10;;;;;;;8.61;100.00;98522.94;4185817;28;20239;-72
2022/10/02 05:32:35;;;;;;;6.20;3.42;;;;;;;8.64;100.00;98516.66;4186163;28;20123;-71
2022/10/02 05:35:05;;;;;;;5.32;3.20;;;;;;;8.63;100.00;98513.13;4154025;28;20405;-71
2022/10/02 05:37:33;;;;;;;9.30;3.45;;;;;;;8.67;100.00;98525.00;4186319;28;20068;-71
2022/10/02 05:40:00;;;;;;;10.38;3.95;;;;;;;8.69;100.00;98519.94;4185414;28;20048;-71
2022/10/02 05:42:22;;;;;;;5.55;3.30;;;;;;;8.73;100.00;98520.00;4185783;28;20486;-72
2022/10/02 05:44:28;;;;;;;8.63;4.38;;;;;;;8.77;100.00;98514.53;4186239;28;20048;-72
2022/10/02 05:46:57;;;;;;;10.75;5.20;;;;;;;8.85;100.00;98522.56;4131338;28;20040;-72
2022/10/02 05:49:01;;;;;;;12.98;4.50;;;;;;;8.92;100.00;98525.47;4190188;28;20044;-72
2022/10/02 05:51:08;;;;;;;10.88;4.50;;;;;;;9.01;100.00;98525.25;4186475;28;20494;-71
2022/10/02 05:53:09;;;;;;;10.35;5.10;;;;;;;9.05;100.00;98531.63;4185975;28;20053;-72
2022/10/02 05:55:17;;;;;;;8.50;4.47;;;;;;;9.19;100.00;98534.66;4185561;28;20553;-71
2022/10/02 05:57:31;;;;;;;10.18;3.72;;;;;;;9.37;100.00;98537.72;4185407;28;20630;-72
2022/10/02 05:59:56;;;;;;;12.63;4.00;;;;;;;9.48;100.00;98532.38;4185891;28;20098;-72
2022/10/02 06:02:01;;;;;;;8.20;4.45;;;;;;;9.62;100.00;98537.34;4185476;28;20143;-71
2022/10/02 06:04:32;;;;;;;7.15;4.65;;;;;;;9.71;100.00;98526.84;4185592;28;20051;-72
2022/10/02 06:06:40;;;;;;;8.15;3.50;;;;;;;9.80;100.00;98525.41;4186028;28;20044;-72
2022/10/02 06:09:09;;;;;;;6.68;3.40;;;;;;;9.88;100.00;98531.03;4174918;28;20072;-72
2022/10/02 06:11:27;;;;;;;7.70;2.83;;;;;;;9.94;100.00;98516.53;4180612;28;20045;-72
2022/10/02 06:13:45;;;;;;;6.68;2.60;;;;;;;10.04;100.00;98515.88;4186263;28;20092;-71
2022/10/02 06:16:04;;;;;;;6.45;2.30;;;;;;;10.10;100.00;98519.13;4185389;28;20079;-72
2022/10/02 06:18:32;;;;;;;5.38;2.25;;;;;;;10.21;100.00;98508.22;4185154;28;20276;-71
2022/10/02 06:20:45;;;;;;;7.35;2.60;;;;;;;10.25;100.00;98526.44;4182980;28;20763;-72
2022/10/02 06:22:52;;;;;;;9.73;2.75;;;;;;;10.26;100.00;98519.78;4185946;28;20114;-72
2022/10/02 06:25:09;;;;;;;6.72;2.67;;;;;;;10.28;100.00;98514.66;4182847;28;20045;-72
2022/10/02 06:27:16;;;;;;;6.55;2.05;;;;;;;10.32;100.00;98520.22;4186610;28;20040;-72
2022/10/02 06:29:23;;;;;;;8.40;2.60;;;;;;;10.34;100.00;98520.63;4185890;28;20060;-72
2022/10/02 06:31:40;;;;;;;6.50;2.22;;;;;;;10.43;100.00;98526.72;4187247;28;20246;-71
2022/10/02 06:33:40;;;;;;;4.45;2.03;;;;;;;10.51;100.00;98530.34;4188842;28;20060;-72
2022/10/02 06:35:53;;;;;;;6.85;2.35;;;;;;;10.53;100.00;98541.84;4189570;28;20045;-71
2022/10/02 06:38:41;;;;;;;7.80;2.85;;;;;;;10.56;100.00;98524.47;4188743;28;20218;-71
2022/10/02 06:41:01;;;;;;;10.15;5.40;;;;;;;10.63;100.00;98525.38;4188453;28;20083;-72
2022/10/02 06:43:23;;;;;;;16.27;8.65;;;;;;;10.75;100.00;98524.31;4188601;28;20044;-71
2022/10/02 06:45:35;;;;;;;11.87;5.87;;;;;;;10.79;100.00;98530.69;4188332;28;21059;-71
2022/10/02 06:47:56;;;;;;;17.02;5.85;;;;;;;10.81;100.00;98525.56;4188398;28;20048;-71
2022/10/02 06:50:23;;;;;;;4.85;3.78;;;;;;;10.92;100.00;98537.56;4188494;28;20143;-71
2022/10/02 06:52:45;;;;;;;9.25;6.65;;;;;;;11.02;100.00;98538.06;4187349;28;20040;-71
2022/10/02 06:55:16;;;;;;;7.95;4.60;;;;;;;11.09;100.00;98541.72;4188464;28;20068;-71
2022/10/02 06:57:32;;;;;;;8.07;3.20;;;;;;;11.14;100.00;98552.41;4187990;28;20062;-71
2022/10/02 06:59:43;;;;;;;5.90;3.50;;;;;;;11.16;100.00;98533.44;4187289;28;20055;-71
2022/10/02 07:01:59;;;;;;;8.60;3.47;;;;;;;11.20;100.00;98537.06;4188601;28;20093;-71
2022/10/02 07:04:24;;;;;;;9.93;3.83;;;;;;;11.34;100.00;98519.78;4185191;28;20059;-71
2022/10/02 07:07:00;;;;;;;8.82;4.15;;;;;;;11.39;100.00;98526.94;4184885;28;20360;-71
2022/10/02 07:09:27;;;;;;;8.90;3.55;;;;;;;11.53;100.00;98518.75;4176667;28;20052;-71
2022/10/02 07:11:52;;;;;;;4.80;2.72;;;;;;;11.60;100.00;98523.56;4188634;28;20581;-72
2022/10/02 07:14:12;;;;;;;6.72;2.25;;;;;;;11.66;100.00;98525.56;4187758;28;20040;-71
2022/10/02 07:16:15;;;;;;;5.38;2.28;;;;;;;11.70;100.00;98515.34;4187273;28;20660;-71
2022/10/02 07:18:22;;;;;;;6.68;2.95;;;;;;;11.71;99.36;98522.47;4187405;28;20043;-71
2022/10/02 07:20:41;;;;;;;5.85;2.83;;;;;;;11.71;99.58;98522.47;4187363;28;20430;-71
2022/10/02 07:23:08;;;;;;;5.28;2.40;;;;;;;11.71;99.61;98527.22;4185973;28;20397;-71
2022/10/02 07:25:24;;;;;;;6.40;2.60;;;;;;;11.74;99.42;98532.78;4189486;28;20048;-72
2022/10/02 07:27:55;;;;;;;7.97;2.58;;;;;;;11.79;98.84;98535.19;4189719;28;20080;-72
2022/10/02 07:30:15;;;;;;;6.00;2.65;;;;;;;11.82;99.23;98528.91;4187607;28;20469;-71
2022/10/02 07:32:36;;;;;;;5.97;2.30;;;;;;;11.86;99.17;98534.50;4187210;28;20827;-71
2022/10/02 07:35:14;;;;;;;8.95;2.90;;;;;;;11.86;98.61;98531.72;4187602;28;20056;-71
2022/10/02 07:37:45;;;;;;;4.93;2.55;;;;;;;11.90;98.40;98524.19;4186894;28;20036;-71
2022/10/02 07:40:05;;;;;;;8.77;2.53;;;;;;;11.96;97.73;98528.22;4186667;28;20066;-71
2022/10/02 07:42:42;;;;;;;8.77;2.80;;;;;;;12.00;98.02;98523.50;4187144;28;20079;-71
2022/10/02 07:45:20;;;;;;;7.57;2.72;;;;;;;12.00;96.41;98533.81;4107638;28;20384;-71
2022/10/02 07:47:35;;;;;;;5.38;2.78;;;;;;;11.97;97.41;98540.09;4186576;28;20498;-71
2022/10/02 07:49:46;;;;;;;6.30;2.60;;;;;;;11.97;98.25;98546.44;4187262;28;20040;-71
2022/10/02 07:51:54;;;;;;;9.10;3.30;;;;;;;11.98;98.06;98547.22;4186425;28;20134;-71
2022/10/02 07:54:07;;;;;;;8.02;3.20;;;;;;;12.01;98.28;98535.38;4188677;28;20116;-71
2022/10/02 07:56:18;;;;;;;13.63;3.25;;;;;;;12.06;98.94;98544.13;4188460;28;20045;-71
2022/10/02 07:58:30;;;;;;;12.57;3.85;;;;;;;12.09;97.92;98546.13;4187322;28;20048;-71
2022/10/02 08:00:35;;;;;;;13.02;3.20;;;;;;;12.11;97.43;98548.53;4187613;28;20139;-71
2022/10/02 08:02:44;;;;;;;6.40;2.58;;;;;;;12.18;97.11;98526.38;4187655;28;20597;-71
2022/10/02 08:04:46;;;;;;;7.05;3.03;;;;;;;12.23;97.09;98539.88;4187299;28;20047;-71
2022/10/02 08:06:50;;;;;;;8.32;3.92;;;;;;;12.26;96.60;98543.88;4187405;28;20351;-72
2022/10/02 08:08:56;;;;;;;9.32;3.40;;;;;;;12.27;96.58;98543.47;4187307;28;20041;-72
2022/10/02 08:11:05;;;;;;;9.15;3.00;;;;;;;12.32;96.91;98558.94;4186615;28;20055;-72
2022/10/02 08:13:19;;;;;;;8.68;2.95;;;;;;;12.39;96.00;98547.88;4187591;28;20358;-72
2022/10/02 08:15:22;;;;;;;8.77;2.92;;;;;;;12.38;95.85;98544.31;4187346;28;20496;-72
2022/10/02 08:17:22;;;;;;;;;;;;;;;12.46;95.91;98539.59;4188033;28;20474;-72
2022/10/02 08:19:40;;;;;;;9.98;3.05;;;;;;;12.53;96.10;98541.63;4186219;28;19920;-72
2022/10/02 08:21:55;;;;;;;8.20;3.53;;;;;;;12.56;95.48;98535.28;4186907;28;20048;-72
2022/10/02 08:24:00;;;;;;;11.77;3.20;;;;;;;12.63;94.38;98524.22;4187429;28;20151;-71
2022/10/02 08:26:15;;;;;;;7.10;2.60;;;;;;;12.62;95.17;98520.63;4187840;28;20304;-72
2022/10/02 08:28:36;;;;;;;7.38;2.75;;;;;;;12.63;95.01;98524.22;4186644;28;20052;-71
2022/10/02 08:30:37;;;;;;;7.72;2.75;;;;;;;12.56;95.65;98527.75;4187116;28;20404;-72
2022/10/02 08:32:37;;;;;;;8.00;2.20;;;;;;;12.55;95.18;98522.59;4186731;28;20040;-72
2022/10/02 08:34:39;;;;;;;6.90;2.97;;;;;;;12.56;96.54;98526.94;4186810;28;20429;-71
2022/10/02 08:37:07;;;;;;;6.10;2.40;;;;;;;12.55;96.43;98531.72;4186834;28;20111;-72
2022/10/02 08:39:27;;;;;;;6.50;2.53;;;;;;;12.56;96.87;98538.06;4185979;28;20484;-72
2022/10/02 08:41:45;;;;;;;5.93;2.53;;;;;;;12.57;96.81;98531.31;4186300;28;20074;-72
2022/10/02 08:43:54;;;;;;;7.22;2.60;;;;;;;12.60;96.25;98531.34;4186232;28;20389;-71
2022/10/02 08:46:13;;;;;;;3.80;2.20;;;;;;;12.70;94.85;98527.03;4186879;28;20061;-71
2022/10/02 08:48:53;;;;;;;4.03;2.03;;;;;;;12.72;94.85;98529.41;4187422;28;20047;-72
2022/10/02 08:51:26;;;;;;;7.07;2.78;;;;;;;12.85;94.02;98530.66;4187578;28;20052;-72
2022/10/02 08:53:49;;;;;;;6.82;2.50;;;;;;;13.01;92.69;98521.97;4185855;28;20411;-72
2022/10/02 08:55:57;;;;;;;;;;;;;;;13.06;91.01;98524.34;4174818;28;20560;-71
2022/10/02 08:58:09;;;;;;;5.63;2.95;;;;;;;13.14;90.66;98523.97;4186709;28;19923;-72
2022/10/02 09:00:21;;;;;;;7.35;3.45;;;;;;;13.35;90.86;98530.78;4185664;28;20051;-71
2022/10/02 09:02:36;;;;;;;4.65;2.17;;;;;;;13.58;90.65;98533.19;4186175;28;20095;-71
2022/10/02 09:04:40;;;;;;;5.70;2.80;;;;;;;13.73;91.74;98531.97;4186454;28;20258;-72
2022/10/02 09:07:06;;;;;;;4.55;2.22;;;;;;;13.73;89.22;98520.84;4187084;28;20071;-72
2022/10/02 09:09:41;;;;;;;7.15;3.28;;;;;;;13.73;88.88;98527.22;4185721;28;20272;-72
2022/10/02 09:12:09;;;;;;;6.57;2.70;;;;;;;13.67;87.29;98520.47;4141985;28;20041;-72
2022/10/02 09:14:47;;;;;;;4.13;2.22;;;;;;;13.72;87.63;98528.41;4185873;28;20066;-72
2022/10/02 09:16:56;;;;;;;6.18;1.67;;;;;;;13.71;87.70;98524.03;4185939;28;20481;-72
2022/10/02 09:19:30;;;;;;;5.95;1.92;;;;;;;13.71;88.42;98526.81;4185404;28;20102;-72
2022/10/02 09:21:48;;;;;;;3.15;1.60;;;;;;;13.70;87.04;98522.44;4185984;28;20413;-72
2022/10/02 09:24:26;;;;;;;3.90;1.80;;;;;;;13.72;87.20;98513.72;4186101;28;20060;-71
2022/10/02 09:26:45;;;;;;;2.85;1.60;;;;;;;13.84;85.88;98520.88;4186300;28;20054;-72
2022/10/02 09:29:10;;;;;;;2.45;1.63;;;;;;;13.89;85.14;98517.66;4185397;28;20159;-72
2022/10/02 09:31:42;;;;;;;2.72;1.50;;;;;;;13.93;84.59;98524.81;4185885;28;20400;-71
2022/10/02 09:34:03;;;;;;;2.17;1.48;;;;;;;13.97;85.09;98516.47;4185888;28;20143;-72
2022/10/02 09:36:12;;;;;;;4.45;1.30;;;;;;;13.98;85.28;98532.78;4185807;28;20142;-72
2022/10/02 09:38:19;;;;;;;2.22;1.20;;;;;;;14.00;84.68;98526.81;4185844;28;20466;-72
2022/10/02 09:40:58;;;;;;;7.20;1.75;;;;;;;14.04;84.36;98522.81;4186010;28;20043;-72
2022/10/02 09:43:23;;;;;;;3.90;1.35;;;;;;;14.08;82.87;98525.59;4185563;28;20045;-71
2022/10/02 09:45:36;;;;;;;2.88;1.15;;;;;;;14.12;83.56;98515.25;4185230;28;20041;-71
2022/10/02 09:48:10;;;;;;;1.67;1.05;;;;;;;14.13;83.64;98532.72;4186023;28;20135;-71
2022/10/02 09:50:26;;;;;;;2.05;0.90;;;;;;;14.13;80.10;98535.50;4184797;28;20667;-72
2022/10/02 09:53:08;;;;;;;2.90;0.80;;;;;;;14.04;80.80;98531.16;4186014;28;20796;-71
2022/10/02 09:55:20;;;;;;;2.47;0.93;;;;;;;14.08;81.27;98533.16;4178919;28;20052;-71
2022/10/02 09:57:50;;;;;;;0.95;0.82;;;;;;;14.12;82.29;98533.94;4186262;28;20059;-72
2022/10/02 10:00:21;;;;;;;2.85;1.45;;;;;;;14.09;79.80;98543.09;4185417;28;20048;-72
2022/10/02 10:02:49;;;;;;;1.52;1.02;;;;;;;14.08;80.30;98541.50;4184952;28;20135;-72
2022/10/02 10:05:08;;;;;;;2.60;1.15;;;;;;;14.13;80.14;98538.31;4172695;28;20095;-71
2022/10/02 10:07:41;;;;;;;1.45;1.10;;;;;;;14.20;81.90;98538.28;4185218;28;20138;-72
2022/10/02 10:10:03;;;;;;;2.80;1.08;;;;;;;14.22;81.46;98539.47;4184221;28;20486;-72
2022/10/02 10:12:07;;;;;;;5.05;1.65;;;;;;;14.24;81.84;98553.00;4184890;28;20074;-71
2022/10/02 10:14:18;;;;;;;4.10;1.70;;;;;;;14.20;81.71;98546.63;4185690;28;20051;-71
2022/10/02 10:16:30;;;;;;;5.03;1.58;;;;;;;14.19;81.93;98550.63;4186072;28;20029;-72
2022/10/02 10:18:41;;;;;;;5.25;2.03;;;;;;;14.11;81.64;98541.50;4184257;28;20057;-71
2022/10/02 10:21:19;;;;;;;2.38;1.77;;;;;;;13.96;81.84;98546.28;4186288;28;20306;-71
2022/10/02 10:23:34;;;;;;;4.95;1.80;;;;;;;13.99;81.68;98545.50;4186280;28;20052;-71
2022/10/02 10:25:59;;;;;;;3.53;1.90;;;;;;;13.93;82.68;98537.94;4185453;28;20160;-71
2022/10/02 10:28:11;;;;;;;6.47;1.92;;;;;;;13.85;83.08;98544.69;4185780;28;20044;-71
2022/10/02 10:30:27;;;;;;;4.10;2.70;;;;;;;13.82;82.03;98543.53;4184748;28;20056;-71